createdAt,value
2017-12-26T00:00:33.036Z,0
2017-12-26T00:01:33.137Z,0
2017-12-26T00:02:33.505Z,0
2017-12-26T00:03:33.633Z,0
2017-12-26T00:04:34.385Z,0
2017-12-26T00:05:34.091Z,0
2017-12-26T00:06:34.708Z,0
2017-12-26T00:07:34.066Z,0
2017-12-26T00:08:34.906Z,0
2017-12-26T00:09:34.494Z,0
2017-12-26T00:10:35.336Z,0
2017-12-26T00:11:35.056Z,0
2017-12-26T00:12:35.683Z,0
2017-12-26T00:13:35.251Z,0
2017-12-26T00:14:35.135Z,0
2017-12-26T00:15:36.101Z,0
2017-12-26T00:16:35.832Z,0
2017-12-26T00:17:36.052Z,0
2017-12-26T00:18:36.086Z,0
2017-12-26T00:19:36.238Z,0
2017-12-26T00:20:36.657Z,0
2017-12-26T00:21:36.799Z,0
2017-12-26T00:22:36.563Z,0
2017-12-26T00:23:37.363Z,0
2017-12-26T00:24:37.439Z,0
2017-12-26T00:25:37.572Z,0
2017-12-26T00:26:37.431Z,0
2017-12-26T00:27:37.814Z,0
2017-12-26T00:28:38.015Z,0
2017-12-26T00:29:37.871Z,0
2017-12-26T00:30:38.036Z,0
2017-12-26T00:31:38.124Z,0
2017-12-26T00:32:38.479Z,0
2017-12-26T00:33:37.758Z,0
2017-12-26T00:34:37.782Z,0
2017-12-26T00:35:39.025Z,0
2017-12-26T00:36:38.522Z,0
2017-12-26T00:37:38.916Z,0
2017-12-26T00:38:38.957Z,0
2017-12-26T00:39:39.149Z,0
2017-12-26T00:40:39.277Z,0
2017-12-26T00:41:39.163Z,0
2017-12-26T00:42:40.142Z,0
2017-12-26T00:43:39.386Z,0
2017-12-26T00:44:39.850Z,0
2017-12-26T00:45:39.620Z,0
2017-12-26T00:46:39.882Z,0
2017-12-26T00:47:40.635Z,0
2017-12-26T00:48:40.444Z,0
2017-12-26T00:49:41.137Z,0
2017-12-26T00:50:41.097Z,0
2017-12-26T00:51:41.145Z,0
2017-12-26T00:52:41.936Z,0
2017-12-26T00:53:41.639Z,0
2017-12-26T00:54:40.777Z,0
2017-12-26T00:55:41.354Z,0
2017-12-26T00:56:41.780Z,0
2017-12-26T00:57:42.194Z,0
2017-12-26T00:58:42.318Z,0
2017-12-26T00:59:42.489Z,0
2017-12-26T01:00:42.579Z,0
2017-12-26T01:01:42.993Z,0
2017-12-26T01:02:42.997Z,0
2017-12-26T01:03:42.903Z,0
2017-12-26T01:04:43.700Z,0
2017-12-26T01:05:42.922Z,0
2017-12-26T01:06:43.252Z,0
2017-12-26T01:07:43.920Z,0
2017-12-26T01:08:43.948Z,0
2017-12-26T01:09:43.920Z,0
2017-12-26T01:10:44.012Z,0
2017-12-26T01:11:43.582Z,0
2017-12-26T01:12:43.982Z,0
2017-12-26T01:13:44.370Z,0
2017-12-26T01:14:44.757Z,0
2017-12-26T01:15:44.303Z,0
2017-12-26T01:16:44.464Z,0
2017-12-26T01:17:45.076Z,0
2017-12-26T01:18:44.816Z,0
2017-12-26T01:19:45.199Z,0
2017-12-26T01:20:45.591Z,0
2017-12-26T01:21:46.255Z,0
2017-12-26T01:22:45.963Z,0
2017-12-26T01:23:45.805Z,0
2017-12-26T01:24:46.289Z,0
2017-12-26T01:25:46.203Z,0
2017-12-26T01:26:46.813Z,0
2017-12-26T01:27:46.405Z,0
2017-12-26T01:28:46.917Z,0
2017-12-26T01:29:46.879Z,0
2017-12-26T01:30:47.322Z,0
2017-12-26T01:31:47.103Z,0
2017-12-26T01:32:47.517Z,0
2017-12-26T01:33:47.028Z,0
2017-12-26T01:34:47.727Z,0
2017-12-26T01:35:47.500Z,0
2017-12-26T01:36:48.442Z,0
2017-12-26T01:37:47.801Z,0
2017-12-26T01:38:48.171Z,0
2017-12-26T01:39:48.119Z,0
2017-12-26T01:40:48.298Z,0
2017-12-26T01:41:48.375Z,0
2017-12-26T01:42:48.271Z,0
2017-12-26T01:43:48.768Z,0
2017-12-26T01:44:49.212Z,0
2017-12-26T01:45:48.978Z,0
2017-12-26T01:46:48.777Z,0
2017-12-26T01:47:49.567Z,0
2017-12-26T01:48:49.225Z,0
2017-12-26T01:49:49.580Z,0
2017-12-26T01:50:49.712Z,0
2017-12-26T01:51:50.080Z,0
2017-12-26T01:52:50.508Z,0
2017-12-26T01:53:50.387Z,0
2017-12-26T01:54:51.248Z,0
2017-12-26T01:55:51.292Z,0
2017-12-26T01:56:51.305Z,0
2017-12-26T01:57:50.789Z,0
2017-12-26T01:58:51.234Z,0
2017-12-26T01:59:51.453Z,0
2017-12-26T02:00:51.496Z,0
2017-12-26T02:01:51.433Z,0
2017-12-26T02:02:51.983Z,0
2017-12-26T02:03:52.271Z,0
2017-12-26T02:04:52.165Z,0
2017-12-26T02:05:51.911Z,0
2017-12-26T02:06:52.359Z,0
2017-12-26T02:07:52.625Z,0
2017-12-26T02:08:52.437Z,0
2017-12-26T02:09:53.111Z,0
2017-12-26T02:10:52.886Z,0
2017-12-26T02:11:53.096Z,0
2017-12-26T02:12:53.685Z,0
2017-12-26T02:13:53.770Z,0
2017-12-26T02:14:53.738Z,0
2017-12-26T02:15:54.324Z,0
2017-12-26T02:16:54.180Z,0
2017-12-26T02:17:54.541Z,0
2017-12-26T02:18:55.207Z,0
2017-12-26T02:19:55.902Z,0
2017-12-26T02:20:55.337Z,0
2017-12-26T02:21:56.002Z,0
2017-12-26T02:22:55.227Z,0
2017-12-26T02:23:55.984Z,0
2017-12-26T02:24:56.040Z,0
2017-12-26T02:25:55.901Z,0
2017-12-26T02:26:56.345Z,0
2017-12-26T02:27:56.516Z,0
2017-12-26T02:28:56.670Z,0
2017-12-26T02:29:57.101Z,0
2017-12-26T02:30:56.988Z,0
2017-12-26T02:31:57.498Z,0
2017-12-26T02:32:56.860Z,0
2017-12-26T02:33:57.683Z,0
2017-12-26T02:34:58.042Z,0
2017-12-26T02:35:57.918Z,0
2017-12-26T02:36:58.426Z,0
2017-12-26T02:37:58.529Z,0
2017-12-26T02:38:58.921Z,0
2017-12-26T02:39:58.882Z,0
2017-12-26T02:40:59.599Z,0
2017-12-26T02:41:59.571Z,0
2017-12-26T02:42:59.271Z,0
2017-12-26T02:43:59.941Z,0
2017-12-26T02:44:59.830Z,0
2017-12-26T02:46:00.336Z,0
2017-12-26T02:47:00.401Z,0
2017-12-26T02:48:00.335Z,0
2017-12-26T02:49:00.498Z,0
2017-12-26T02:50:00.166Z,0
2017-12-26T02:51:00.628Z,0
2017-12-26T02:52:00.382Z,0
2017-12-26T02:53:00.781Z,0
2017-12-26T02:54:00.966Z,0
2017-12-26T02:55:01.663Z,0
2017-12-26T02:56:01.596Z,0
2017-12-26T02:57:01.520Z,0
2017-12-26T02:58:01.371Z,0
2017-12-26T02:59:02.105Z,0
2017-12-26T03:00:01.937Z,0
2017-12-26T03:01:01.575Z,0
2017-12-26T03:02:03.102Z,0
2017-12-26T03:03:01.593Z,0
2017-12-26T03:04:02.432Z,0
2017-12-26T03:05:03.354Z,0
2017-12-26T03:06:02.210Z,0
2017-12-26T03:07:02.089Z,0
2017-12-26T03:08:02.415Z,0
2017-12-26T03:09:02.877Z,0
2017-12-26T03:10:02.331Z,0
2017-12-26T03:11:02.612Z,0
2017-12-26T03:12:03.364Z,0
2017-12-26T03:13:03.584Z,0
2017-12-26T03:14:03.812Z,0
2017-12-26T03:15:04.020Z,0
2017-12-26T03:16:04.205Z,0
2017-12-26T03:17:04.206Z,0
2017-12-26T03:18:04.114Z,0
2017-12-26T03:19:03.721Z,0
2017-12-26T03:20:03.763Z,0
2017-12-26T03:21:05.119Z,0
2017-12-26T03:22:04.020Z,0
2017-12-26T03:23:04.439Z,0
2017-12-26T03:24:05.171Z,0
2017-12-26T03:25:04.985Z,0
2017-12-26T03:26:04.802Z,0
2017-12-26T03:27:05.004Z,0
2017-12-26T03:28:05.910Z,0
2017-12-26T03:29:05.068Z,0
2017-12-26T03:30:04.371Z,0
2017-12-26T03:31:04.606Z,0
2017-12-26T03:32:05.078Z,0
2017-12-26T03:33:05.233Z,0
2017-12-26T03:34:05.291Z,0
2017-12-26T03:35:05.593Z,0
2017-12-26T03:36:07.393Z,0
2017-12-26T03:37:05.811Z,0
2017-12-26T03:38:06.321Z,0
2017-12-26T03:39:07.277Z,0
2017-12-26T03:40:06.984Z,0
2017-12-26T03:41:07.112Z,0
2017-12-26T03:42:07.193Z,0
2017-12-26T03:43:06.498Z,0
2017-12-26T03:44:06.856Z,0
2017-12-26T03:45:07.738Z,0
2017-12-26T03:46:07.996Z,0
2017-12-26T03:47:07.644Z,0
2017-12-26T03:48:07.963Z,0
2017-12-26T03:49:08.499Z,0
2017-12-26T03:50:09.594Z,0
2017-12-26T03:51:08.341Z,0
2017-12-26T03:52:09.369Z,0
2017-12-26T03:53:08.182Z,0
2017-12-26T03:54:08.069Z,0
2017-12-26T03:55:08.136Z,0
2017-12-26T03:56:07.695Z,0
2017-12-26T03:57:07.266Z,0
2017-12-26T03:58:07.564Z,0
2017-12-26T03:59:08.174Z,0
2017-12-26T04:00:07.603Z,0
2017-12-26T04:01:08.064Z,0
2017-12-26T04:02:09.263Z,0
2017-12-26T04:03:09.012Z,0
2017-12-26T04:04:09.380Z,0
2017-12-26T04:05:09.202Z,0
2017-12-26T04:06:10.543Z,0
2017-12-26T04:07:09.645Z,0
2017-12-26T04:08:08.670Z,0
2017-12-26T04:09:08.819Z,0
2017-12-26T04:10:09.774Z,0
2017-12-26T04:11:08.764Z,0
2017-12-26T04:12:09.471Z,0
2017-12-26T04:13:09.971Z,0
2017-12-26T04:14:08.917Z,0
2017-12-26T04:15:09.269Z,0
2017-12-26T04:16:10.432Z,0
2017-12-26T04:17:10.733Z,0
2017-12-26T04:18:10.397Z,0
2017-12-26T04:19:09.890Z,0
2017-12-26T04:20:09.170Z,0
2017-12-26T04:21:09.905Z,0
2017-12-26T04:22:09.711Z,0
2017-12-26T04:23:09.874Z,0
2017-12-26T04:24:09.819Z,0
2017-12-26T04:25:10.115Z,0
2017-12-26T04:26:09.167Z,0
2017-12-26T04:27:10.110Z,0
2017-12-26T04:28:09.955Z,0
2017-12-26T04:29:09.373Z,0
2017-12-26T04:30:09.888Z,0
2017-12-26T04:31:10.220Z,0
2017-12-26T04:32:10.106Z,0
2017-12-26T04:33:09.828Z,0
2017-12-26T04:34:10.678Z,0
2017-12-26T04:35:10.936Z,0
2017-12-26T04:36:10.327Z,0
2017-12-26T04:37:10.578Z,0
2017-12-26T04:38:10.023Z,0
2017-12-26T04:39:10.626Z,0
2017-12-26T04:40:10.557Z,0
2017-12-26T04:41:10.878Z,0
2017-12-26T04:42:11.550Z,0
2017-12-26T04:43:10.890Z,0
2017-12-26T04:44:11.579Z,0
2017-12-26T04:45:11.140Z,0
2017-12-26T04:46:11.537Z,0
2017-12-26T04:47:11.478Z,0
2017-12-26T04:48:11.706Z,0
2017-12-26T04:49:12.186Z,0
2017-12-26T04:50:12.148Z,0
2017-12-26T04:51:12.940Z,0
2017-12-26T04:52:12.694Z,0
2017-12-26T04:53:13.309Z,0
2017-12-26T04:54:12.885Z,0
2017-12-26T04:55:13.109Z,0
2017-12-26T04:56:13.511Z,0
2017-12-26T04:57:13.726Z,0
2017-12-26T04:58:13.947Z,0
2017-12-26T04:59:14.133Z,0
2017-12-26T05:00:14.462Z,0
2017-12-26T05:01:14.818Z,0
2017-12-26T05:02:15.036Z,0
2017-12-26T05:03:15.763Z,0
2017-12-26T05:04:15.709Z,0
2017-12-26T05:05:15.502Z,0
2017-12-26T05:06:15.386Z,0
2017-12-26T05:07:16.136Z,0
2017-12-26T05:08:16.312Z,0
2017-12-26T05:09:17.007Z,0
2017-12-26T05:10:16.219Z,0
2017-12-26T05:11:16.794Z,0
2017-12-26T05:12:16.527Z,0
2017-12-26T05:13:16.698Z,0
2017-12-26T05:14:17.027Z,0
2017-12-26T05:15:17.430Z,0
2017-12-26T05:16:17.639Z,0
2017-12-26T05:17:18.308Z,0
2017-12-26T05:18:18.091Z,0
2017-12-26T05:19:17.802Z,0
2017-12-26T05:20:18.644Z,0
2017-12-26T05:21:19.034Z,0
2017-12-26T05:22:19.491Z,0
2017-12-26T05:23:19.230Z,0
2017-12-26T05:24:18.603Z,0
2017-12-26T05:25:19.940Z,0
2017-12-26T05:26:20.032Z,0
2017-12-26T05:27:20.321Z,0
2017-12-26T05:28:21.230Z,0
2017-12-26T05:29:21.150Z,0
2017-12-26T05:30:20.921Z,0
2017-12-26T05:31:21.573Z,0
2017-12-26T05:32:21.683Z,0
2017-12-26T05:33:22.138Z,0
2017-12-26T05:34:22.548Z,0
2017-12-26T05:35:22.565Z,0
2017-12-26T05:36:22.935Z,0
2017-12-26T05:37:23.355Z,0
2017-12-26T05:38:23.171Z,0
2017-12-26T05:39:23.359Z,0
2017-12-26T05:40:23.497Z,0
2017-12-26T05:41:23.259Z,0
2017-12-26T05:42:23.551Z,0
2017-12-26T05:43:23.862Z,0
2017-12-26T05:44:23.581Z,0
2017-12-26T05:45:23.360Z,0
2017-12-26T05:46:23.260Z,0
2017-12-26T05:47:24.883Z,0
2017-12-26T05:48:24.186Z,0
2017-12-26T05:49:23.829Z,0
2017-12-26T05:50:24.566Z,0
2017-12-26T05:51:24.519Z,0
2017-12-26T05:52:25.081Z,0
2017-12-26T05:53:25.548Z,0
2017-12-26T05:54:25.000Z,0
2017-12-26T05:55:24.777Z,0
2017-12-26T05:56:24.875Z,0
2017-12-26T05:57:24.814Z,0
2017-12-26T05:58:23.962Z,0
2017-12-26T05:59:24.618Z,0
2017-12-26T06:00:24.919Z,0
2017-12-26T06:01:24.801Z,0
2017-12-26T06:02:24.294Z,0
2017-12-26T06:03:24.458Z,0
2017-12-26T06:04:24.626Z,0
2017-12-26T06:05:24.898Z,0
2017-12-26T06:06:25.052Z,0
2017-12-26T06:07:25.713Z,0
2017-12-26T06:08:25.897Z,0
2017-12-26T06:09:25.657Z,0
2017-12-26T06:10:26.340Z,0
2017-12-26T06:11:26.091Z,0
2017-12-26T06:12:26.334Z,0
2017-12-26T06:13:26.784Z,0
2017-12-26T06:14:26.641Z,0
2017-12-26T06:15:26.635Z,0
2017-12-26T06:16:26.575Z,0
2017-12-26T06:17:27.359Z,0
2017-12-26T06:18:27.495Z,0
2017-12-26T06:19:27.673Z,0
2017-12-26T06:20:27.859Z,0
2017-12-26T06:21:27.584Z,0
2017-12-26T06:22:28.188Z,0
2017-12-26T06:23:28.352Z,0
2017-12-26T06:24:28.628Z,0
2017-12-26T06:25:29.202Z,0
2017-12-26T06:26:28.818Z,0
2017-12-26T06:27:29.035Z,0
2017-12-26T06:28:29.702Z,0
2017-12-26T06:29:29.283Z,0
2017-12-26T06:30:29.446Z,0
2017-12-26T06:31:29.971Z,0
2017-12-26T06:32:29.787Z,0
2017-12-26T06:33:30.387Z,0
2017-12-26T06:34:30.525Z,0
2017-12-26T06:35:30.281Z,0
2017-12-26T06:36:30.783Z,0
2017-12-26T06:37:30.929Z,0
2017-12-26T06:38:30.755Z,0
2017-12-26T06:39:31.200Z,0
2017-12-26T06:40:31.638Z,0
2017-12-26T06:41:32.050Z,0
2017-12-26T06:42:32.221Z,0
2017-12-26T06:43:32.514Z,0
2017-12-26T06:44:33.008Z,0
2017-12-26T06:45:32.939Z,0
2017-12-26T06:46:33.419Z,0
2017-12-26T06:47:33.427Z,0
2017-12-26T06:48:33.389Z,0
2017-12-26T06:49:32.888Z,0
2017-12-26T06:50:33.175Z,0
2017-12-26T06:51:33.754Z,0
2017-12-26T06:52:33.544Z,0
2017-12-26T06:53:34.223Z,0
2017-12-26T06:54:33.735Z,0
2017-12-26T06:55:33.981Z,0
2017-12-26T06:56:33.592Z,0
2017-12-26T06:57:34.763Z,0
2017-12-26T06:58:33.422Z,0
2017-12-26T06:59:33.643Z,0
2017-12-26T07:00:33.838Z,0
2017-12-26T07:01:34.047Z,0
2017-12-26T07:02:34.179Z,0
2017-12-26T07:03:34.477Z,0
2017-12-26T07:04:34.686Z,0
2017-12-26T07:05:35.046Z,0
2017-12-26T07:06:34.977Z,0
2017-12-26T07:07:35.384Z,0
2017-12-26T07:08:35.569Z,5
2017-12-26T07:09:35.065Z,5
2017-12-26T07:10:36.096Z,5
2017-12-26T07:11:35.751Z,5
2017-12-26T07:12:35.911Z,5
2017-12-26T07:13:35.856Z,5
2017-12-26T07:14:36.675Z,5
2017-12-26T07:15:36.823Z,5
2017-12-26T07:16:35.794Z,5
2017-12-26T07:18:35.644Z,10
2017-12-26T07:19:35.785Z,10
2017-12-26T07:20:35.819Z,10
2017-12-26T07:21:35.612Z,10
2017-12-26T07:22:35.882Z,10
2017-12-26T07:23:35.388Z,10
2017-12-26T07:24:35.930Z,15
2017-12-26T07:25:36.502Z,15
2017-12-26T07:26:36.263Z,15
2017-12-26T07:27:36.980Z,15
2017-12-26T07:28:36.878Z,20
2017-12-26T07:29:36.843Z,20
2017-12-26T07:30:37.031Z,20
2017-12-26T07:31:37.208Z,20
2017-12-26T07:32:37.202Z,20
2017-12-26T07:33:37.508Z,25
2017-12-26T07:34:36.674Z,25
2017-12-26T07:35:37.130Z,25
2017-12-26T07:36:37.543Z,25
2017-12-26T07:37:37.436Z,25
2017-12-26T07:38:38.170Z,30
2017-12-26T07:39:37.729Z,30
2017-12-26T07:40:37.694Z,30
2017-12-26T07:41:36.984Z,30
2017-12-26T07:42:37.208Z,35
2017-12-26T07:43:37.499Z,35
2017-12-26T07:44:37.999Z,35
2017-12-26T07:45:38.164Z,35
2017-12-26T07:46:38.074Z,35
2017-12-26T07:47:38.597Z,35
2017-12-26T07:48:38.339Z,35
2017-12-26T07:49:39.191Z,35
2017-12-26T07:50:39.071Z,35
2017-12-26T07:51:39.640Z,35
2017-12-26T07:52:38.839Z,35
2017-12-26T07:53:39.380Z,40
2017-12-26T07:54:39.125Z,40
2017-12-26T07:55:39.719Z,40
2017-12-26T07:56:38.849Z,45
2017-12-26T07:57:40.716Z,45
2017-12-26T07:58:39.808Z,45
2017-12-26T07:59:40.960Z,50
2017-12-26T08:00:41.518Z,50
2017-12-26T08:01:41.684Z,50
2017-12-26T08:02:41.703Z,55
2017-12-26T08:03:41.380Z,55
2017-12-26T08:04:41.516Z,55
2017-12-26T08:05:41.882Z,60
2017-12-26T08:06:41.796Z,60
2017-12-26T08:07:43.676Z,65
2017-12-26T08:08:42.535Z,65
2017-12-26T08:09:42.414Z,70
2017-12-26T08:10:42.080Z,70
2017-12-26T08:11:42.346Z,70
2017-12-26T08:12:43.187Z,70
2017-12-26T08:13:42.615Z,75
2017-12-26T08:14:43.380Z,75
2017-12-26T08:15:43.362Z,75
2017-12-26T08:16:43.234Z,75
2017-12-26T08:17:43.630Z,75
2017-12-26T08:18:44.290Z,75
2017-12-26T08:19:44.908Z,70
2017-12-26T08:20:44.893Z,70
2017-12-26T08:21:44.513Z,65
2017-12-26T08:22:44.464Z,65
2017-12-26T08:23:44.673Z,65
2017-12-26T08:24:45.395Z,65
2017-12-26T08:25:45.685Z,65
2017-12-26T08:26:45.148Z,65
2017-12-26T08:27:45.542Z,65
2017-12-26T08:28:45.374Z,65
2017-12-26T08:29:45.580Z,65
2017-12-26T08:30:45.347Z,65
2017-12-26T08:31:45.274Z,65
2017-12-26T08:32:45.777Z,65
2017-12-26T08:33:46.169Z,65
2017-12-26T08:34:46.286Z,70
2017-12-26T08:35:47.023Z,70
2017-12-26T08:36:46.710Z,75
2017-12-26T08:37:46.716Z,75
2017-12-26T08:38:47.425Z,75
2017-12-26T08:39:47.388Z,80
2017-12-26T08:40:47.267Z,80
2017-12-26T08:41:47.958Z,80
2017-12-26T08:42:47.678Z,80
2017-12-26T08:43:47.816Z,75
2017-12-26T08:44:48.117Z,75
2017-12-26T08:45:48.614Z,75
2017-12-26T08:46:48.408Z,80
2017-12-26T08:47:48.324Z,80
2017-12-26T08:48:48.532Z,85
2017-12-26T08:49:48.583Z,85
2017-12-26T08:50:48.861Z,85
2017-12-26T08:51:49.301Z,80
2017-12-26T08:52:49.399Z,80
2017-12-26T08:53:48.525Z,85
2017-12-26T08:54:49.196Z,80
2017-12-26T08:55:48.979Z,85
2017-12-26T08:56:50.094Z,85
2017-12-26T08:57:49.351Z,85
2017-12-26T08:58:49.423Z,85
2017-12-26T08:59:49.640Z,85
2017-12-26T09:00:49.835Z,85
2017-12-26T09:01:50.633Z,85
2017-12-26T09:02:51.207Z,85
2017-12-26T09:03:50.986Z,85
2017-12-26T09:04:50.793Z,85
2017-12-26T09:05:51.246Z,90
2017-12-26T09:06:51.264Z,95
2017-12-26T09:07:52.068Z,100
2017-12-26T09:08:52.028Z,105
2017-12-26T09:09:52.424Z,115
2017-12-26T09:10:52.382Z,120
2017-12-26T09:11:52.176Z,125
2017-12-26T09:12:52.602Z,125
2017-12-26T09:13:52.941Z,145
2017-12-26T09:14:52.312Z,145
2017-12-26T09:15:52.325Z,150
2017-12-26T09:16:53.327Z,140
2017-12-26T09:17:52.712Z,135
2017-12-26T09:18:53.173Z,150
2017-12-26T09:19:52.918Z,140
2017-12-26T09:20:53.326Z,140
2017-12-26T09:21:54.042Z,150
2017-12-26T09:22:53.319Z,150
2017-12-26T09:23:53.529Z,160
2017-12-26T09:24:53.846Z,145
2017-12-26T09:25:54.310Z,145
2017-12-26T09:26:53.983Z,140
2017-12-26T09:27:54.450Z,155
2017-12-26T09:28:53.939Z,185
2017-12-26T09:29:54.330Z,190
2017-12-26T09:30:54.024Z,180
2017-12-26T09:31:54.621Z,175
2017-12-26T09:32:56.168Z,210
2017-12-26T09:33:56.125Z,210
2017-12-26T09:34:56.089Z,225
2017-12-26T09:35:55.141Z,250
2017-12-26T09:36:55.584Z,255
2017-12-26T09:37:56.626Z,265
2017-12-26T09:38:56.056Z,255
2017-12-26T09:39:56.777Z,290
2017-12-26T09:40:57.037Z,285
2017-12-26T09:41:57.281Z,265
2017-12-26T09:42:57.587Z,260
2017-12-26T09:43:56.971Z,255
2017-12-26T09:44:56.667Z,240
2017-12-26T09:45:57.491Z,215
2017-12-26T09:46:57.715Z,235
2017-12-26T09:47:57.932Z,220
2017-12-26T09:48:57.777Z,215
2017-12-26T09:49:57.545Z,230
2017-12-26T09:50:58.448Z,245
2017-12-26T09:51:58.485Z,255
2017-12-26T09:52:58.346Z,270
2017-12-26T09:53:58.350Z,265
2017-12-26T09:54:58.515Z,275
2017-12-26T09:55:58.336Z,280
2017-12-26T09:56:59.002Z,285
2017-12-26T09:57:58.879Z,285
2017-12-26T09:58:59.010Z,280
2017-12-26T09:59:59.929Z,285
2017-12-26T10:00:59.208Z,280
2017-12-26T10:01:59.504Z,285
2017-12-26T10:02:59.896Z,280
2017-12-26T10:03:59.979Z,265
2017-12-26T10:04:59.679Z,270
2017-12-26T10:06:00.020Z,265
2017-12-26T10:07:00.697Z,245
2017-12-26T10:08:00.449Z,240
2017-12-26T10:09:00.488Z,235
2017-12-26T10:10:00.887Z,235
2017-12-26T10:11:00.057Z,235
2017-12-26T10:12:00.356Z,225
2017-12-26T10:13:00.157Z,210
2017-12-26T10:14:00.960Z,230
2017-12-26T10:15:00.390Z,230
2017-12-26T10:16:00.712Z,245
2017-12-26T10:17:01.272Z,255
2017-12-26T10:18:01.790Z,240
2017-12-26T10:19:01.449Z,210
2017-12-26T10:20:01.256Z,205
2017-12-26T10:21:01.405Z,210
2017-12-26T10:22:02.106Z,215
2017-12-26T10:23:01.579Z,225
2017-12-26T10:24:03.539Z,260
2017-12-26T10:25:02.455Z,255
2017-12-26T10:26:03.229Z,250
2017-12-26T10:27:02.935Z,260
2017-12-26T10:28:04.255Z,260
2017-12-26T10:29:03.533Z,250
2017-12-26T10:30:03.060Z,255
2017-12-26T10:31:03.108Z,275
2017-12-26T10:32:03.300Z,280
2017-12-26T10:33:03.769Z,285
2017-12-26T10:34:04.030Z,285
2017-12-26T10:35:04.016Z,290
2017-12-26T10:36:04.572Z,275
2017-12-26T10:37:04.515Z,260
2017-12-26T10:38:04.620Z,260
2017-12-26T10:39:04.533Z,265
2017-12-26T10:40:05.134Z,265
2017-12-26T10:41:05.365Z,265
2017-12-26T10:42:05.129Z,260
2017-12-26T10:43:05.006Z,260
2017-12-26T10:44:05.327Z,270
2017-12-26T10:45:05.809Z,270
2017-12-26T10:46:05.268Z,270
2017-12-26T10:47:05.771Z,270
2017-12-26T10:48:06.376Z,275
2017-12-26T10:49:06.426Z,270
2017-12-26T10:50:06.685Z,270
2017-12-26T10:51:06.856Z,265
2017-12-26T10:52:06.602Z,265
2017-12-26T10:53:06.789Z,270
2017-12-26T10:54:07.110Z,265
2017-12-26T10:55:06.236Z,250
2017-12-26T10:56:06.662Z,245
2017-12-26T10:57:06.527Z,245
2017-12-26T10:58:06.980Z,245
2017-12-26T10:59:07.238Z,245
2017-12-26T11:00:08.051Z,245
2017-12-26T11:01:07.943Z,240
2017-12-26T11:02:09.437Z,235
2017-12-26T11:03:07.770Z,235
2017-12-26T11:04:07.861Z,230
2017-12-26T11:05:07.307Z,230
2017-12-26T11:06:08.059Z,230
2017-12-26T11:07:07.644Z,230
2017-12-26T11:08:08.006Z,225
2017-12-26T11:09:08.686Z,220
2017-12-26T11:10:08.635Z,215
2017-12-26T11:11:08.741Z,210
2017-12-26T11:12:08.881Z,205
2017-12-26T11:13:09.117Z,200
2017-12-26T11:14:09.536Z,195
2017-12-26T11:15:09.691Z,190
2017-12-26T11:16:10.140Z,185
2017-12-26T11:17:09.788Z,180
2017-12-26T11:18:10.623Z,180
2017-12-26T11:19:11.314Z,180
2017-12-26T11:20:10.840Z,175
2017-12-26T11:21:11.526Z,175
2017-12-26T11:22:11.024Z,180
2017-12-26T11:23:10.780Z,175
2017-12-26T11:24:11.680Z,170
2017-12-26T11:25:11.722Z,165
2017-12-26T11:26:11.669Z,160
2017-12-26T11:27:11.424Z,155
2017-12-26T11:28:11.307Z,150
2017-12-26T11:29:12.180Z,150
2017-12-26T11:30:11.911Z,145
2017-12-26T11:31:12.277Z,145
2017-12-26T11:32:11.774Z,150
2017-12-26T11:33:12.513Z,145
2017-12-26T11:34:12.445Z,140
2017-12-26T11:35:12.079Z,140
2017-12-26T11:36:12.848Z,140
2017-12-26T11:37:12.769Z,140
2017-12-26T11:38:12.403Z,140
2017-12-26T11:39:13.084Z,145
2017-12-26T11:40:12.837Z,145
2017-12-26T11:41:13.509Z,140
2017-12-26T11:42:13.319Z,140
2017-12-26T11:43:13.052Z,140
2017-12-26T11:44:13.324Z,140
2017-12-26T11:45:13.884Z,140
2017-12-26T11:46:13.864Z,140
2017-12-26T11:47:13.966Z,140
2017-12-26T11:48:14.288Z,140
2017-12-26T11:49:13.989Z,135
2017-12-26T11:50:14.280Z,135
2017-12-26T11:51:14.223Z,140
2017-12-26T11:52:14.635Z,140
2017-12-26T11:53:14.768Z,115
2017-12-26T11:54:15.292Z,125
2017-12-26T11:55:15.431Z,155
2017-12-26T11:56:15.861Z,160
2017-12-26T11:57:16.540Z,140
2017-12-26T11:58:16.080Z,130
2017-12-26T11:59:16.775Z,135
2017-12-26T12:00:16.266Z,125
2017-12-26T12:01:16.766Z,120
2017-12-26T12:02:17.297Z,130
2017-12-26T12:03:16.617Z,135
2017-12-26T12:04:16.303Z,150
2017-12-26T12:05:17.097Z,150
2017-12-26T12:06:17.497Z,145
2017-12-26T12:07:17.594Z,130
2017-12-26T12:08:18.354Z,115
2017-12-26T12:09:18.918Z,105
2017-12-26T12:10:19.122Z,105
2017-12-26T12:11:18.618Z,110
2017-12-26T12:12:19.044Z,120
2017-12-26T12:13:19.556Z,130
2017-12-26T12:14:19.576Z,135
2017-12-26T12:15:19.351Z,135
2017-12-26T12:16:19.525Z,135
2017-12-26T12:17:19.881Z,125
2017-12-26T12:18:19.810Z,120
2017-12-26T12:19:19.724Z,115
2017-12-26T12:20:20.402Z,125
2017-12-26T12:21:20.010Z,115
2017-12-26T12:22:20.427Z,115
2017-12-26T12:23:21.738Z,110
2017-12-26T12:24:21.944Z,120
2017-12-26T12:25:21.736Z,120
2017-12-26T12:26:21.901Z,110
2017-12-26T12:27:21.939Z,100
2017-12-26T12:28:21.886Z,85
2017-12-26T12:29:22.993Z,80
2017-12-26T12:30:22.367Z,85
2017-12-26T12:31:22.450Z,85
2017-12-26T12:32:22.080Z,90
2017-12-26T12:33:21.958Z,90
2017-12-26T12:34:21.976Z,80
2017-12-26T12:35:23.051Z,85
2017-12-26T12:36:22.432Z,85
2017-12-26T12:37:22.948Z,80
2017-12-26T12:38:23.543Z,80
2017-12-26T12:39:23.155Z,70
2017-12-26T12:40:23.383Z,65
2017-12-26T12:41:23.747Z,65
2017-12-26T12:43:23.975Z,70
2017-12-26T12:44:23.752Z,65
2017-12-26T12:45:23.761Z,60
2017-12-26T12:46:23.530Z,55
2017-12-26T12:47:23.766Z,55
2017-12-26T12:48:23.842Z,60
2017-12-26T12:49:24.750Z,55
2017-12-26T12:50:24.433Z,45
2017-12-26T12:51:24.888Z,50
2017-12-26T12:52:24.729Z,50
2017-12-26T12:53:25.392Z,45
2017-12-26T12:54:25.460Z,50
2017-12-26T12:55:25.729Z,50
2017-12-26T12:56:25.188Z,45
2017-12-26T12:57:25.271Z,45
2017-12-26T12:58:26.429Z,45
2017-12-26T12:59:26.912Z,55
2017-12-26T13:00:26.669Z,65
2017-12-26T13:01:26.204Z,80
2017-12-26T13:02:26.041Z,100
2017-12-26T13:03:26.686Z,125
2017-12-26T13:04:27.316Z,135
2017-12-26T13:05:27.268Z,120
2017-12-26T13:06:26.750Z,110
2017-12-26T13:07:26.962Z,100
2017-12-26T13:08:26.698Z,110
2017-12-26T13:09:27.713Z,120
2017-12-26T13:10:26.382Z,125
2017-12-26T13:11:27.132Z,125
2017-12-26T13:12:27.035Z,115
2017-12-26T13:13:26.875Z,105
2017-12-26T13:14:27.060Z,85
2017-12-26T13:15:26.921Z,65
2017-12-26T13:16:27.203Z,55
2017-12-26T13:17:27.205Z,75
2017-12-26T13:18:27.476Z,80
2017-12-26T13:19:27.953Z,70
2017-12-26T13:20:27.476Z,65
2017-12-26T13:21:28.453Z,75
2017-12-26T13:22:27.436Z,95
2017-12-26T13:23:28.069Z,85
2017-12-26T13:24:28.199Z,70
2017-12-26T13:25:28.943Z,50
2017-12-26T13:26:28.760Z,40
2017-12-26T13:27:28.804Z,25
2017-12-26T13:28:28.971Z,20
2017-12-26T13:29:28.608Z,20
2017-12-26T13:30:29.280Z,20
2017-12-26T13:31:28.697Z,20
2017-12-26T13:32:29.423Z,20
2017-12-26T13:33:28.974Z,20
2017-12-26T13:34:29.493Z,20
2017-12-26T13:35:29.059Z,20
2017-12-26T13:36:29.285Z,15
2017-12-26T13:37:29.701Z,15
2017-12-26T13:38:28.808Z,15
2017-12-26T13:39:29.616Z,15
2017-12-26T13:40:29.615Z,15
2017-12-26T13:41:29.377Z,15
2017-12-26T13:42:29.847Z,15
2017-12-26T13:43:30.207Z,10
2017-12-26T13:44:30.624Z,10
2017-12-26T13:45:30.831Z,10
2017-12-26T13:46:31.313Z,10
2017-12-26T13:47:31.263Z,10
2017-12-26T13:48:31.681Z,5
2017-12-26T13:49:32.341Z,5
2017-12-26T13:50:31.871Z,5
2017-12-26T13:51:32.574Z,5
2017-12-26T13:52:32.349Z,5
2017-12-26T13:53:33.288Z,5
2017-12-26T13:54:33.854Z,5
2017-12-26T13:55:33.109Z,5
2017-12-26T13:56:33.332Z,5
2017-12-26T13:57:33.659Z,10
2017-12-26T13:58:33.584Z,10
2017-12-26T13:59:33.113Z,10
2017-12-26T14:00:33.522Z,10
2017-12-26T14:01:33.707Z,10
2017-12-26T14:02:34.195Z,5
2017-12-26T14:03:34.873Z,5
2017-12-26T14:04:34.661Z,5
2017-12-26T14:05:34.946Z,5
2017-12-26T14:06:50.166Z,5
2017-12-26T14:07:35.511Z,5
2017-12-26T14:08:34.815Z,5
2017-12-26T14:09:35.732Z,5
2017-12-26T14:10:36.402Z,10
2017-12-26T14:11:36.064Z,10
2017-12-26T14:12:34.913Z,10
2017-12-26T14:13:35.651Z,10
2017-12-26T14:14:35.641Z,10
2017-12-26T14:15:36.053Z,15
2017-12-26T14:16:35.560Z,10
2017-12-26T14:17:35.756Z,10
2017-12-26T14:18:36.366Z,10
2017-12-26T14:19:36.166Z,10
2017-12-26T14:20:36.585Z,10
2017-12-26T14:22:05.751Z,5
2017-12-26T14:22:35.944Z,5
2017-12-26T14:23:36.596Z,5
2017-12-26T14:24:36.518Z,5
2017-12-26T14:25:36.989Z,5
2017-12-26T14:26:36.885Z,5
2017-12-26T14:27:37.430Z,5
2017-12-26T14:28:37.364Z,5